Grizzly Air Cargo 5373


PADU
Unalaska Airport
Unalaska, Alaska, US
PACD
Cold Bay Airport
Cold Bay, Alaska, US

Activity Log

Date Flight Route Aircraft Duration
No Flights Yet

Route Details

Aircraft Information
Primary: Saab 340AF
Backup: Not Available
Route Data
Distance: 169nm
Sched. Duration: 0h 70m
Avg. Duration: 0h 00m (-70m)
Times Flown: 0
Recm'd Route: DUT J115 CDB
Planned Altitude: 19,000ft
Origin Wx: PADU 271456Z AUTO 00000KT 10SM FEW010 OVC021 03/03 A2976 RMK AO2 RAE11 SLP082 P0000 60009 T00330028 56010
Dest. Wx: PACD 271529Z AUTO 14018G27KT 7SM -RA BKN013 OVC023 03/00 A2975 RMK AO2 PK WND 14027/1521 P0004 T00280000 TSNO
Notes:

Financial History
Total Freight: 0lbs
Average Load: 0lbs/flt
Fuel Used: 0lbs
Avg. Fuel Used: 0lbs/flt
Fuel Expense: $0
Avg. Fuel Expense: $0
Avg. Fuel Cost: $0/lbs
Total Gross Income: $0
Pilot Pay: $0
Total Expenses: $0
Total Revenue: $0
Average Revenue: $0